createdAt,value
2019-04-27T00:01:57.047Z,16.99
2019-04-27T00:04:48.695Z,16.92
2019-04-27T00:07:36.089Z,16.75
2019-04-27T00:10:10.332Z,16.70
2019-04-27T00:12:37.765Z,16.63
2019-04-27T00:15:06.504Z,16.72
2019-04-27T00:17:58.485Z,16.77
2019-04-27T00:20:37.693Z,17.01
2019-04-27T00:23:08.632Z,16.97
2019-04-27T00:25:36.205Z,16.94
2019-04-27T00:28:05.342Z,17.09
2019-04-27T00:30:35.657Z,17.01
2019-04-27T00:33:05.156Z,17.03
2019-04-27T00:35:46.213Z,17.21
2019-04-27T00:38:23.236Z,17.19
2019-04-27T00:40:55.491Z,17.22
2019-04-27T00:43:23.055Z,16.82
2019-04-27T00:45:50.531Z,17.09
2019-04-27T00:48:17.953Z,17.14
2019-04-27T00:50:45.497Z,16.75
2019-04-27T00:53:13.527Z,16.91
2019-04-27T00:55:57.385Z,16.73
2019-04-27T00:58:34.009Z,16.91
2019-04-27T01:01:16.075Z,17.03
2019-04-27T01:03:47.392Z,17.16
2019-04-27T01:06:14.985Z,17.09
2019-04-27T01:08:42.804Z,17.03
2019-04-27T01:11:11.942Z,17.07
2019-04-27T01:13:39.497Z,16.83
2019-04-27T01:16:08.634Z,16.74
2019-04-27T01:18:36.255Z,16.48
2019-04-27T01:21:03.849Z,16.37
2019-04-27T01:23:31.321Z,16.40
2019-04-27T01:26:18.697Z,16.48
2019-04-27T01:28:54.376Z,16.46
2019-04-27T01:31:22.468Z,16.42
2019-04-27T01:33:49.936Z,16.28
2019-04-27T01:36:19.029Z,16.06
2019-04-27T01:38:46.559Z,15.92
2019-04-27T01:41:14.134Z,15.75
2019-04-27T01:43:41.607Z,15.64
2019-04-27T01:46:09.252Z,15.61
2019-04-27T01:48:36.742Z,15.45
2019-04-27T01:51:04.426Z,15.39
2019-04-27T01:53:31.864Z,15.45
2019-04-27T01:55:59.475Z,15.44
2019-04-27T01:58:26.992Z,15.46
2019-04-27T02:01:22.688Z,15.35
2019-04-27T02:04:09.227Z,15.18
2019-04-27T02:06:38.562Z,15.00
2019-04-27T02:09:09.126Z,14.90
2019-04-27T02:11:36.731Z,14.81
2019-04-27T02:14:04.507Z,14.79
2019-04-27T02:16:32.063Z,14.75
2019-04-27T02:18:59.550Z,14.84
2019-04-27T02:21:27.066Z,14.78
2019-04-27T02:23:54.627Z,14.83
2019-04-27T02:26:22.209Z,14.76
2019-04-27T02:29:13.009Z,14.58
2019-04-27T02:32:02.730Z,14.82
2019-04-27T02:34:32.306Z,14.77
2019-04-27T02:37:02.722Z,14.56
2019-04-27T02:39:29.862Z,14.52
2019-04-27T02:41:59.908Z,14.53
2019-04-27T02:44:33.067Z,14.52
2019-04-27T02:47:00.656Z,14.45
2019-04-27T02:49:30.449Z,14.35
2019-04-27T02:52:30.100Z,14.37
2019-04-27T02:54:59.361Z,14.32
2019-04-27T02:57:29.726Z,14.30
2019-04-27T02:59:56.569Z,14.30
2019-04-27T03:02:30.135Z,14.18
2019-04-27T03:05:00.300Z,14.00
2019-04-27T03:07:27.126Z,13.98
2019-04-27T03:09:54.599Z,13.99
2019-04-27T03:12:24.791Z,14.19
2019-04-27T03:15:10.213Z,14.33
2019-04-27T03:18:02.612Z,14.38
2019-04-27T03:20:45.791Z,14.09
2019-04-27T03:23:13.603Z,14.41
2019-04-27T03:26:00.803Z,14.38
2019-04-27T03:28:29.833Z,14.27
2019-04-27T03:31:01.930Z,14.31
2019-04-27T03:33:27.090Z,14.27
2019-04-27T03:35:55.734Z,14.32
2019-04-27T03:38:23.585Z,14.28
2019-04-27T03:40:52.926Z,14.12
2019-04-27T03:43:23.723Z,14.16
2019-04-27T03:45:52.513Z,14.31
2019-04-27T03:48:20.867Z,14.40
2019-04-27T03:51:09.951Z,14.46
2019-04-27T03:53:42.011Z,14.42
2019-04-27T03:56:30.429Z,14.40
2019-04-27T03:59:04.700Z,14.50
2019-04-27T04:01:32.285Z,14.70
2019-04-27T04:03:59.959Z,14.91
2019-04-27T04:06:29.493Z,14.92
2019-04-27T04:08:59.932Z,14.90
2019-04-27T04:11:34.281Z,14.98
2019-04-27T04:14:06.197Z,14.97
2019-04-27T04:16:45.927Z,15.05
2019-04-27T04:19:13.965Z,15.26
2019-04-27T04:21:41.487Z,15.32
2019-04-27T04:24:11.653Z,15.52
2019-04-27T04:26:40.217Z,15.94
2019-04-27T04:29:10.241Z,16.11
2019-04-27T04:31:40.126Z,16.29
2019-04-27T04:34:06.676Z,16.42
2019-04-27T04:36:34.165Z,16.15
2019-04-27T04:39:01.742Z,16.04
2019-04-27T04:41:59.761Z,15.83
2019-04-27T04:44:39.947Z,15.81
2019-04-27T04:47:30.572Z,15.83
2019-04-27T04:50:08.471Z,16.01
2019-04-27T04:52:29.468Z,16.15
2019-04-27T04:54:59.382Z,16.02
2019-04-27T04:57:26.682Z,16.23
2019-04-27T04:59:54.416Z,16.43
2019-04-27T05:02:21.945Z,16.57
2019-04-27T05:04:49.331Z,16.55
2019-04-27T05:07:16.770Z,16.40
2019-04-27T05:09:44.222Z,16.25
2019-04-27T05:12:14.260Z,16.12
2019-04-27T05:14:41.738Z,16.41
2019-04-27T05:17:09.515Z,16.43
2019-04-27T05:19:38.831Z,16.75
2019-04-27T05:22:06.437Z,17.02
2019-04-27T05:24:33.988Z,17.26
2019-04-27T05:27:01.379Z,17.35
2019-04-27T05:29:29.411Z,17.47
2019-04-27T05:31:59.052Z,17.86
2019-04-27T05:34:26.513Z,17.62
2019-04-27T05:36:53.969Z,17.65
2019-04-27T05:39:25.165Z,17.63
2019-04-27T05:41:50.888Z,17.89
2019-04-27T05:44:41.347Z,18.07
2019-04-27T05:47:16.686Z,18.24
2019-04-27T05:49:48.532Z,18.20
2019-04-27T05:52:29.792Z,18.06
2019-04-27T05:54:58.947Z,17.91
2019-04-27T05:57:30.744Z,17.88
2019-04-27T06:00:01.117Z,17.73
2019-04-27T06:02:30.229Z,17.48
2019-04-27T06:05:00.090Z,17.66
2019-04-27T06:07:29.417Z,18.09
2019-04-27T06:09:56.916Z,18.20
2019-04-27T06:12:24.430Z,18.39
2019-04-27T06:14:51.950Z,18.14
2019-04-27T06:17:19.582Z,18.22
2019-04-27T06:19:49.200Z,18.45
2019-04-27T06:22:16.684Z,18.43
2019-04-27T06:24:44.207Z,18.74
2019-04-27T06:27:11.904Z,18.91
2019-04-27T06:29:40.875Z,19.09
2019-04-27T06:32:09.005Z,19.32
2019-04-27T06:34:39.029Z,19.28
2019-04-27T06:37:06.790Z,19.13
2019-04-27T06:39:34.408Z,19.06
2019-04-27T06:42:01.896Z,19.33
2019-04-27T06:44:29.479Z,19.79
2019-04-27T06:46:56.990Z,20.12
2019-04-27T06:49:24.453Z,20.32
2019-04-27T06:51:52.020Z,20.60
2019-04-27T06:54:21.226Z,20.61
2019-04-27T06:56:49.282Z,20.36
2019-04-27T06:59:18.521Z,20.19
2019-04-27T07:01:46.051Z,20.32
2019-04-27T07:04:13.644Z,20.68
2019-04-27T07:06:53.232Z,20.93
2019-04-27T07:09:10.919Z,21.17
2019-04-27T07:11:39.393Z,21.16
2019-04-27T07:14:11.175Z,22.09
2019-04-27T07:16:39.065Z,22.50
2019-04-27T07:19:06.760Z,22.49
2019-04-27T07:21:34.343Z,22.89
2019-04-27T07:24:01.838Z,22.39
2019-04-27T07:26:30.241Z,21.92
2019-04-27T07:28:59.566Z,21.49
2019-04-27T07:31:29.508Z,21.00
2019-04-27T07:33:57.309Z,21.34
2019-04-27T07:36:24.701Z,21.88
2019-04-27T07:38:52.463Z,22.09
2019-04-27T07:41:20.308Z,22.04
2019-04-27T07:44:03.044Z,22.05
2019-04-27T07:46:31.843Z,22.56
2019-04-27T07:48:59.570Z,23.19
2019-04-27T07:51:32.108Z,23.75
2019-04-27T07:53:58.774Z,23.82
2019-04-27T07:56:26.368Z,23.86
2019-04-27T07:58:53.994Z,23.96
2019-04-27T08:01:21.464Z,23.89
2019-04-27T08:03:49.134Z,24.07
2019-04-27T08:06:18.841Z,23.56
2019-04-27T08:08:46.362Z,24.01
2019-04-27T08:11:13.978Z,24.08
2019-04-27T08:13:41.478Z,23.84
2019-04-27T08:16:09.123Z,24.13
2019-04-27T08:18:36.741Z,23.96
2019-04-27T08:21:04.414Z,24.07
2019-04-27T08:23:31.875Z,24.29
2019-04-27T08:25:59.309Z,23.78
2019-04-27T08:28:43.577Z,24.30
2019-04-27T08:31:18.837Z,24.30
2019-04-27T08:33:46.424Z,24.50
2019-04-27T08:36:13.843Z,24.87
2019-04-27T08:38:41.517Z,24.94
2019-04-27T08:41:09.089Z,25.24
2019-04-27T08:43:38.863Z,25.49
2019-04-27T08:46:06.479Z,25.64
2019-04-27T08:48:36.925Z,25.03
2019-04-27T08:51:03.448Z,24.95
2019-04-27T08:53:30.930Z,24.60
2019-04-27T08:55:59.194Z,24.81
2019-04-27T08:58:28.487Z,25.03
2019-04-27T09:00:56.103Z,25.18
2019-04-27T09:03:24.043Z,25.14
2019-04-27T09:05:51.506Z,25.04
2019-04-27T09:08:34.403Z,25.30
2019-04-27T09:11:18.674Z,25.91
2019-04-27T09:14:06.327Z,25.93
2019-04-27T09:17:00.041Z,25.93
2019-04-27T09:19:33.926Z,25.55
2019-04-27T09:22:12.738Z,25.76
2019-04-27T09:24:31.549Z,25.76
2019-04-27T09:26:59.605Z,25.88
2019-04-27T09:29:27.382Z,25.62
2019-04-27T09:31:54.933Z,25.37
2019-04-27T09:34:22.447Z,25.24
2019-04-27T09:36:49.879Z,25.94
2019-04-27T09:39:17.322Z,25.94
2019-04-27T09:41:46.031Z,26.25
2019-04-27T09:44:15.949Z,26.24
2019-04-27T09:46:43.537Z,25.99
2019-04-27T09:49:12.190Z,25.82
2019-04-27T09:51:39.831Z,26.01
2019-04-27T09:54:07.367Z,26.01
2019-04-27T09:56:36.353Z,25.73
2019-04-27T09:59:04.134Z,25.86
2019-04-27T10:01:31.663Z,25.56
2019-04-27T10:03:59.180Z,25.25
2019-04-27T10:06:29.876Z,25.05
2019-04-27T10:08:57.673Z,25.03
2019-04-27T10:11:26.466Z,24.94
2019-04-27T10:13:55.612Z,24.79
2019-04-27T10:16:23.495Z,24.72
2019-04-27T10:18:50.987Z,24.71
2019-04-27T10:21:18.412Z,24.82
2019-04-27T10:23:46.976Z,24.69
2019-04-27T10:26:15.787Z,24.60
2019-04-27T10:28:43.357Z,24.81
2019-04-27T10:31:10.733Z,24.70
2019-04-27T10:33:38.302Z,25.02
2019-04-27T10:36:06.481Z,24.86
2019-04-27T10:38:35.849Z,25.00
2019-04-27T10:41:03.620Z,25.27
2019-04-27T10:43:31.095Z,25.81
2019-04-27T10:45:58.555Z,25.81
2019-04-27T10:48:26.607Z,26.05
2019-04-27T10:50:54.096Z,25.86
2019-04-27T10:53:21.605Z,25.89
2019-04-27T10:55:49.004Z,25.97
2019-04-27T10:58:16.522Z,26.01
2019-04-27T11:00:48.990Z,25.97
2019-04-27T11:03:19.799Z,26.25
2019-04-27T11:06:16.052Z,26.30
2019-04-27T11:08:43.619Z,26.30
2019-04-27T11:11:11.189Z,26.35
2019-04-27T11:13:38.716Z,26.23
2019-04-27T11:16:06.321Z,26.33
2019-04-27T11:18:33.839Z,26.22
2019-04-27T11:21:01.423Z,26.06
2019-04-27T11:23:28.873Z,26.22
2019-04-27T11:25:56.485Z,26.50
2019-04-27T11:28:25.868Z,26.75
2019-04-27T11:30:53.536Z,26.48
2019-04-27T11:33:20.922Z,26.43
2019-04-27T11:35:54.944Z,26.39
2019-04-27T11:38:22.475Z,26.37
2019-04-27T11:40:49.959Z,26.49
2019-04-27T11:43:18.015Z,26.39
2019-04-27T11:45:45.891Z,26.08
2019-04-27T11:48:13.409Z,25.75
2019-04-27T11:50:41.009Z,25.93
2019-04-27T11:53:19.754Z,25.93
2019-04-27T11:55:37.942Z,25.82
2019-04-27T11:58:06.555Z,25.45
2019-04-27T12:00:34.310Z,24.87
2019-04-27T12:03:01.853Z,24.35
2019-04-27T12:05:29.315Z,23.93
2019-04-27T12:07:56.847Z,23.97
2019-04-27T12:10:26.311Z,23.97
2019-04-27T12:12:53.853Z,23.99
2019-04-27T12:15:21.664Z,24.23
2019-04-27T12:17:49.251Z,24.21
2019-04-27T12:20:17.947Z,24.15
2019-04-27T12:22:45.730Z,24.27
2019-04-27T12:25:13.778Z,23.96
2019-04-27T12:28:00.253Z,23.78
2019-04-27T12:30:41.161Z,23.71
2019-04-27T12:33:08.984Z,23.64
2019-04-27T12:35:36.854Z,22.87
2019-04-27T12:38:05.871Z,21.85
2019-04-27T12:40:33.633Z,20.80
2019-04-27T12:43:01.265Z,19.34
2019-04-27T12:45:28.987Z,18.19
2019-04-27T12:47:56.723Z,17.30
2019-04-27T12:50:26.262Z,17.27
2019-04-27T12:52:57.848Z,17.32
2019-04-27T12:55:46.418Z,17.19
2019-04-27T12:58:39.784Z,17.31
2019-04-27T13:01:09.688Z,17.48
2019-04-27T13:03:37.150Z,17.20
2019-04-27T13:06:04.796Z,16.67
2019-04-27T13:08:32.187Z,16.24
2019-04-27T13:11:00.945Z,16.02
2019-04-27T13:13:28.577Z,15.92
2019-04-27T13:15:56.521Z,15.86
2019-04-27T13:18:25.829Z,16.06
2019-04-27T13:20:54.045Z,16.25
2019-04-27T13:23:21.662Z,16.40
2019-04-27T13:25:49.157Z,16.73
2019-04-27T13:28:18.588Z,17.30
2019-04-27T13:30:47.607Z,17.77
2019-04-27T13:33:17.228Z,17.98
2019-04-27T13:35:44.622Z,18.05
2019-04-27T13:38:12.099Z,17.86
2019-04-27T13:40:39.989Z,17.91
2019-04-27T13:43:13.355Z,17.57
2019-04-27T13:45:58.031Z,17.64
2019-04-27T13:48:46.612Z,17.63
2019-04-27T13:51:16.719Z,17.81
2019-04-27T13:53:45.597Z,17.93
2019-04-27T13:56:17.383Z,17.81
2019-04-27T13:58:45.439Z,17.78
2019-04-27T14:01:13.168Z,17.78
2019-04-27T14:03:40.629Z,18.14
2019-04-27T14:06:08.175Z,18.08
2019-04-27T14:08:35.743Z,18.04
2019-04-27T14:11:05.986Z,17.97
2019-04-27T14:13:33.406Z,18.16
2019-04-27T14:16:00.946Z,18.42
2019-04-27T14:18:29.113Z,18.52
2019-04-27T14:20:56.779Z,18.61
2019-04-27T14:23:28.305Z,18.69
2019-04-27T14:25:55.782Z,18.86
2019-04-27T14:28:23.219Z,19.26
2019-04-27T14:30:50.679Z,19.36
2019-04-27T14:33:18.679Z,19.66
2019-04-27T14:35:48.010Z,19.66
2019-04-27T14:38:15.571Z,19.56
2019-04-27T14:40:43.106Z,19.48
2019-04-27T14:43:10.731Z,19.61
2019-04-27T14:45:39.763Z,19.69
2019-04-27T14:48:08.299Z,19.68
2019-04-27T14:50:36.066Z,19.25
2019-04-27T14:53:03.687Z,19.40
2019-04-27T14:55:31.240Z,19.23
2019-04-27T14:57:58.720Z,17.92
2019-04-27T15:00:26.387Z,17.06
2019-04-27T15:02:53.829Z,16.27
2019-04-27T15:05:21.264Z,15.90
2019-04-27T15:07:48.790Z,15.94
2019-04-27T15:10:16.424Z,15.84
2019-04-27T15:12:44.007Z,15.62
2019-04-27T15:15:11.726Z,15.57
2019-04-27T15:17:40.191Z,15.26
2019-04-27T15:20:12.796Z,14.96
2019-04-27T15:22:40.497Z,14.72
2019-04-27T15:25:13.024Z,14.66
2019-04-27T15:27:43.156Z,14.74
2019-04-27T15:30:17.790Z,14.70
2019-04-27T15:33:03.919Z,14.62
2019-04-27T15:35:40.620Z,14.39
2019-04-27T15:38:13.998Z,14.50
2019-04-27T15:41:16.073Z,14.53
2019-04-27T15:43:44.127Z,14.43
2019-04-27T15:46:11.620Z,14.32
2019-04-27T15:48:39.064Z,14.35
2019-04-27T15:51:14.874Z,14.39
2019-04-27T15:53:38.701Z,14.40
2019-04-27T15:56:05.198Z,14.28
2019-04-27T15:58:32.684Z,14.19
2019-04-27T16:01:03.290Z,14.06
2019-04-27T16:03:31.425Z,14.13
2019-04-27T16:05:58.986Z,13.99
2019-04-27T16:08:26.453Z,13.74
2019-04-27T16:10:54.009Z,13.71
2019-04-27T16:13:21.383Z,13.69
2019-04-27T16:15:53.970Z,13.67
2019-04-27T16:18:18.701Z,13.62
2019-04-27T16:20:48.499Z,13.56
2019-04-27T16:23:18.062Z,13.51
2019-04-27T16:25:48.769Z,13.40
2019-04-27T16:28:14.716Z,13.37
2019-04-27T16:30:45.779Z,13.33
2019-04-27T16:33:15.450Z,13.28
2019-04-27T16:35:44.489Z,13.25
2019-04-27T16:38:35.273Z,13.26
2019-04-27T16:41:03.454Z,13.20
2019-04-27T16:43:32.863Z,13.17
2019-04-27T16:46:04.297Z,13.20
2019-04-27T16:48:34.791Z,13.22
2019-04-27T16:51:00.864Z,13.22
2019-04-27T16:53:30.023Z,13.19
2019-04-27T16:56:14.426Z,13.16
2019-04-27T16:58:39.401Z,13.26
2019-04-27T17:01:10.916Z,13.32
2019-04-27T17:03:38.966Z,13.34
2019-04-27T17:06:09.044Z,13.45
2019-04-27T17:08:39.176Z,13.34
2019-04-27T17:11:11.457Z,13.30
2019-04-27T17:13:39.262Z,13.40
2019-04-27T17:16:24.786Z,13.50
2019-04-27T17:19:04.811Z,13.52
2019-04-27T17:21:33.421Z,13.70
2019-04-27T17:24:02.861Z,13.72
2019-04-27T17:26:29.228Z,13.61
2019-04-27T17:29:10.910Z,13.51
2019-04-27T17:31:39.489Z,13.47
2019-04-27T17:34:08.161Z,13.45
2019-04-27T17:36:35.762Z,13.45
2019-04-27T17:39:06.073Z,13.60
2019-04-27T17:41:33.618Z,13.68
2019-04-27T17:44:01.090Z,13.69
2019-04-27T17:46:28.753Z,13.55
2019-04-27T17:48:58.555Z,13.73
2019-04-27T17:51:30.546Z,13.68
2019-04-27T17:53:55.759Z,13.84
2019-04-27T17:56:33.393Z,13.93
2019-04-27T17:58:53.179Z,14.02
2019-04-27T18:01:23.432Z,14.09
2019-04-27T18:03:58.483Z,14.18
2019-04-27T18:06:20.505Z,14.23
2019-04-27T18:08:49.353Z,14.20
2019-04-27T18:11:18.617Z,14.14
2019-04-27T18:13:46.363Z,14.02
2019-04-27T18:16:13.861Z,14.19
2019-04-27T18:18:53.807Z,14.35
2019-04-27T18:21:26.051Z,14.35
2019-04-27T18:23:58.292Z,14.14
2019-04-27T18:26:49.072Z,14.13
2019-04-27T18:29:08.171Z,14.10
2019-04-27T18:31:35.820Z,14.35
2019-04-27T18:34:03.613Z,14.36
2019-04-27T18:36:31.035Z,14.52
2019-04-27T18:38:58.760Z,14.52
2019-04-27T18:41:26.540Z,14.43
2019-04-27T18:43:55.833Z,14.52
2019-04-27T18:46:24.820Z,14.66
2019-04-27T18:49:12.002Z,14.52
2019-04-27T18:52:06.478Z,14.61
2019-04-27T18:54:38.191Z,14.75
2019-04-27T18:57:04.872Z,14.67
2019-04-27T18:59:32.684Z,14.55
2019-04-27T19:02:00.228Z,14.49
2019-04-27T19:04:28.197Z,14.34
2019-04-27T19:06:55.763Z,14.52
2019-04-27T19:09:23.252Z,14.48
2019-04-27T19:11:55.986Z,14.48
2019-04-27T19:14:20.206Z,14.55
2019-04-27T19:16:48.441Z,14.49
2019-04-27T19:19:16.427Z,14.56
2019-04-27T19:21:44.507Z,14.53
2019-04-27T19:24:12.002Z,14.44
2019-04-27T19:27:17.951Z,14.29
2019-04-27T19:29:44.103Z,14.21
2019-04-27T19:32:11.702Z,14.26
2019-04-27T19:34:39.173Z,14.10
2019-04-27T19:37:08.169Z,14.21
2019-04-27T19:39:36.008Z,14.25
2019-04-27T19:42:03.959Z,14.22
2019-04-27T19:44:31.524Z,14.15
2019-04-27T19:47:00.142Z,14.10
2019-04-27T19:49:31.261Z,13.92
2019-04-27T19:51:58.828Z,13.81
2019-04-27T19:54:29.894Z,13.81
2019-04-27T19:56:56.225Z,13.83
2019-04-27T19:59:29.013Z,14.10
2019-04-27T20:01:59.363Z,14.13
2019-04-27T20:04:34.721Z,14.01
2019-04-27T20:07:02.224Z,13.91
2019-04-27T20:09:58.536Z,13.82
2019-04-27T20:12:26.051Z,13.71
2019-04-27T20:14:56.621Z,13.71
2019-04-27T20:17:32.204Z,13.55
2019-04-27T20:20:00.272Z,13.67
2019-04-27T20:22:27.829Z,13.92
2019-04-27T20:24:56.290Z,13.82
2019-04-27T20:27:24.751Z,13.55
2019-04-27T20:29:52.247Z,13.33
2019-04-27T20:32:21.467Z,13.20
2019-04-27T20:34:49.076Z,13.11
2019-04-27T20:37:16.923Z,13.02
2019-04-27T20:39:44.432Z,12.98
2019-04-27T20:42:12.574Z,12.98
2019-04-27T20:44:41.269Z,13.06
2019-04-27T20:47:09.266Z,13.16
2019-04-27T20:49:36.746Z,13.21
2019-04-27T20:52:10.939Z,13.12
2019-04-27T20:54:38.697Z,12.98
2019-04-27T20:57:06.315Z,12.90
2019-04-27T20:59:33.793Z,12.84
2019-04-27T21:02:22.306Z,12.81
2019-04-27T21:04:55.288Z,12.77
2019-04-27T21:07:37.926Z,12.83
2019-04-27T21:10:06.338Z,12.80
2019-04-27T21:12:33.772Z,12.84
2019-04-27T21:15:01.147Z,12.93
2019-04-27T21:17:28.616Z,12.94
2019-04-27T21:19:56.057Z,12.88
2019-04-27T21:22:23.615Z,12.65
2019-04-27T21:24:51.543Z,12.56
2019-04-27T21:27:19.044Z,12.93
2019-04-27T21:29:46.479Z,12.95
2019-04-27T21:32:13.856Z,13.03
2019-04-27T21:34:41.459Z,13.05
2019-04-27T21:37:08.864Z,13.15
2019-04-27T21:39:36.333Z,13.11
2019-04-27T21:42:04.002Z,13.01
2019-04-27T21:44:31.962Z,12.92
2019-04-27T21:47:00.814Z,12.87
2019-04-27T21:49:28.409Z,12.86
2019-04-27T21:52:15.593Z,12.85
2019-04-27T21:54:43.647Z,12.67
2019-04-27T21:57:12.676Z,12.48
2019-04-27T21:59:40.479Z,12.41
2019-04-27T22:02:09.456Z,12.39
2019-04-27T22:04:36.953Z,12.36
2019-04-27T22:07:04.858Z,12.34
2019-04-27T22:09:32.347Z,12.22
2019-04-27T22:12:00.645Z,12.26
2019-04-27T22:14:29.166Z,12.29
2019-04-27T22:16:56.601Z,12.21
2019-04-27T22:19:24.926Z,12.27
2019-04-27T22:21:52.448Z,12.27
2019-04-27T22:24:30.353Z,12.14
2019-04-27T22:26:57.851Z,12.21
2019-04-27T22:29:25.235Z,12.19
2019-04-27T22:31:52.723Z,12.21
2019-04-27T22:34:21.105Z,12.19
2019-04-27T22:36:48.526Z,12.23
2019-04-27T22:39:35.473Z,12.15
2019-04-27T22:42:34.699Z,12.26
2019-04-27T22:45:13.283Z,12.23
2019-04-27T22:47:40.907Z,12.22
2019-04-27T22:50:08.738Z,12.03
2019-04-27T22:52:36.182Z,12.38
2019-04-27T22:55:04.046Z,12.54
2019-04-27T22:57:37.934Z,12.56
2019-04-27T23:00:24.135Z,12.69
2019-04-27T23:02:57.458Z,12.47
2019-04-27T23:05:24.916Z,12.57
2019-04-27T23:07:52.309Z,12.46
2019-04-27T23:10:21.335Z,12.36
2019-04-27T23:12:50.976Z,12.19
2019-04-27T23:15:20.641Z,12.08
2019-04-27T23:17:53.648Z,12.12
2019-04-27T23:20:21.361Z,12.13
2019-04-27T23:22:48.854Z,12.21
2019-04-27T23:25:16.298Z,12.10
2019-04-27T23:27:43.790Z,12.09
2019-04-27T23:30:12.157Z,12.01
2019-04-27T23:32:42.615Z,12.00
2019-04-27T23:35:10.443Z,12.03
2019-04-27T23:37:37.853Z,11.92
2019-04-27T23:40:05.470Z,11.91
2019-04-27T23:42:32.996Z,11.88
2019-04-27T23:45:00.406Z,11.83
2019-04-27T23:47:27.895Z,11.77
2019-04-27T23:49:55.337Z,11.75
2019-04-27T23:52:42.305Z,11.69
2019-04-27T23:55:10.886Z,11.67
2019-04-27T23:57:38.403Z,11.60
